createdAt,value
2022-11-30T00:00:45.121Z,75.12
2022-11-30T00:01:45.149Z,76.12
2022-11-30T00:02:45.198Z,76.27
2022-11-30T00:03:45.111Z,76.26
2022-11-30T00:04:45.474Z,76.21
2022-11-30T00:05:45.114Z,76.12
2022-11-30T00:06:45.123Z,76.43
2022-11-30T00:07:45.150Z,76.8
2022-11-30T00:08:45.107Z,76.38
2022-11-30T00:09:45.108Z,75.66
2022-11-30T00:10:45.129Z,75.39
2022-11-30T00:11:45.115Z,75.61
2022-11-30T00:12:45.128Z,76.06
2022-11-30T00:13:45.120Z,75.55
2022-11-30T00:14:45.581Z,75.69
2022-11-30T00:15:45.139Z,74.89
2022-11-30T00:16:45.254Z,74.87
2022-11-30T00:17:45.121Z,74.54
2022-11-30T00:18:45.121Z,74.61
2022-11-30T00:19:45.123Z,75.8
2022-11-30T00:20:45.133Z,75.3
2022-11-30T00:21:45.133Z,74.54
2022-11-30T00:22:45.125Z,74.54
2022-11-30T00:23:45.117Z,75.5
2022-11-30T00:24:45.470Z,75.56
2022-11-30T00:25:45.110Z,74.72
2022-11-30T00:26:45.123Z,74.98
2022-11-30T00:27:45.118Z,74.79
2022-11-30T00:28:45.116Z,74.5
2022-11-30T00:29:45.127Z,74.31
2022-11-30T00:30:45.149Z,74.34
2022-11-30T00:31:45.133Z,74.72
2022-11-30T00:32:45.131Z,75.36
2022-11-30T00:33:45.130Z,75.69
2022-11-30T00:34:45.371Z,74.76
2022-11-30T00:35:45.125Z,74.47
2022-11-30T00:36:45.135Z,74.47
2022-11-30T00:37:45.133Z,74.47
2022-11-30T00:38:45.127Z,74.63
2022-11-30T00:39:45.124Z,74.74
2022-11-30T00:40:45.120Z,74.96
2022-11-30T00:41:45.136Z,75.15
2022-11-30T00:42:45.122Z,76.49
2022-11-30T00:43:45.122Z,75.44
2022-11-30T00:44:45.632Z,75.82
2022-11-30T00:45:45.163Z,75.96
2022-11-30T00:46:45.151Z,75.17
2022-11-30T00:47:45.112Z,74.84
2022-11-30T00:48:45.127Z,75.13
2022-11-30T00:49:45.118Z,76.33
2022-11-30T00:50:45.119Z,75.09
2022-11-30T00:51:45.144Z,74.14
2022-11-30T00:52:45.134Z,73.72
2022-11-30T00:53:45.127Z,74.85
2022-11-30T00:54:45.429Z,74.5
2022-11-30T00:55:45.119Z,74.37
2022-11-30T00:56:45.137Z,75.28
2022-11-30T00:57:45.133Z,73.39
2022-11-30T00:58:45.127Z,74.45
2022-11-30T00:59:45.124Z,74.45
2022-11-30T01:00:45.109Z,74.35
2022-11-30T01:01:45.180Z,74.54
2022-11-30T01:02:45.190Z,74.76
2022-11-30T01:03:45.120Z,75.41
2022-11-30T01:04:45.409Z,74.62
2022-11-30T01:05:45.107Z,74.25
2022-11-30T01:06:45.119Z,74
2022-11-30T01:07:45.199Z,74.23
2022-11-30T01:08:45.110Z,74.23
2022-11-30T01:09:45.115Z,73.18
2022-11-30T01:10:45.115Z,73.53
2022-11-30T01:11:45.111Z,73.72
2022-11-30T01:12:45.174Z,74.26
2022-11-30T01:13:45.122Z,74.79
2022-11-30T01:14:45.355Z,73.92
2022-11-30T01:15:45.265Z,73.93
2022-11-30T01:16:45.141Z,74.26
2022-11-30T01:17:45.114Z,74.82
2022-11-30T01:18:45.117Z,73.96
2022-11-30T01:19:45.108Z,73.96
2022-11-30T01:20:45.110Z,73.78
2022-11-30T01:21:45.111Z,73.31
2022-11-30T01:22:45.113Z,73.17
2022-11-30T01:23:45.118Z,72.92
2022-11-30T01:24:45.563Z,73.28
2022-11-30T01:25:45.104Z,72.65
2022-11-30T01:26:45.122Z,72.98
2022-11-30T01:27:45.111Z,73.09
2022-11-30T01:28:45.124Z,73.58
2022-11-30T01:29:45.125Z,73.45
2022-11-30T01:30:45.184Z,73.5
2022-11-30T01:31:45.138Z,74.42
2022-11-30T01:32:45.121Z,74.93
2022-11-30T01:33:45.128Z,74.28
2022-11-30T01:34:45.517Z,74.9
2022-11-30T01:35:45.125Z,74.34
2022-11-30T01:36:45.116Z,75.04
2022-11-30T01:37:45.128Z,75.38
2022-11-30T01:38:45.147Z,75.67
2022-11-30T01:39:45.114Z,75.75
2022-11-30T01:40:45.197Z,75.99
2022-11-30T01:41:45.120Z,75.18
2022-11-30T01:42:45.119Z,74.45
2022-11-30T01:43:45.142Z,75.01
2022-11-30T01:44:45.465Z,75.44
2022-11-30T01:45:45.172Z,76.61
2022-11-30T01:46:45.140Z,75.94
2022-11-30T01:47:45.119Z,75.58
2022-11-30T01:48:45.136Z,76.08
2022-11-30T01:49:45.119Z,75.88
2022-11-30T01:50:45.124Z,75.85
2022-11-30T01:51:45.123Z,75.58
2022-11-30T01:52:45.118Z,76.22
2022-11-30T01:53:45.134Z,76.29
2022-11-30T01:54:45.426Z,77.16
2022-11-30T01:55:45.127Z,76.89
2022-11-30T01:56:45.111Z,76.22
2022-11-30T01:57:45.121Z,76.25
2022-11-30T01:58:45.133Z,75.63
2022-11-30T01:59:45.199Z,75.46
2022-11-30T02:00:45.111Z,75.92
2022-11-30T02:01:45.171Z,76.33
2022-11-30T02:02:45.192Z,76.76
2022-11-30T02:03:45.142Z,76.29
2022-11-30T02:04:45.385Z,76.29
2022-11-30T02:05:45.131Z,76.63
2022-11-30T02:06:45.128Z,77.06
2022-11-30T02:07:45.335Z,76.93
2022-11-30T02:08:45.198Z,77.97
2022-11-30T02:09:45.128Z,77.5
2022-11-30T02:10:45.138Z,77.41
2022-11-30T02:11:45.130Z,78.19
2022-11-30T02:12:45.115Z,79.79
2022-11-30T02:13:45.137Z,77.77
2022-11-30T02:14:45.333Z,78.3
2022-11-30T02:15:45.229Z,78.73
2022-11-30T02:16:45.128Z,78.64
2022-11-30T02:17:45.107Z,78.71
2022-11-30T02:18:45.136Z,77.93
2022-11-30T02:19:45.108Z,77.53
2022-11-30T02:20:45.106Z,77.75
2022-11-30T02:21:45.105Z,78.38
2022-11-30T02:22:45.106Z,78.64
2022-11-30T02:23:45.130Z,77.72
2022-11-30T02:24:45.409Z,78.25
2022-11-30T02:25:45.110Z,78.72
2022-11-30T02:26:45.117Z,78.96
2022-11-30T02:27:45.115Z,78.87
2022-11-30T02:28:45.119Z,78.91
2022-11-30T02:29:45.117Z,79.47
2022-11-30T02:30:45.218Z,79.78
2022-11-30T02:31:45.136Z,79
2022-11-30T02:32:45.106Z,79.92
2022-11-30T02:33:45.111Z,78.56
2022-11-30T02:34:45.340Z,78.96
2022-11-30T02:35:47.133Z,78.97
2022-11-30T02:36:45.108Z,79.17
2022-11-30T02:37:45.121Z,78.35
2022-11-30T02:38:45.123Z,78.56
2022-11-30T02:39:45.132Z,79.21
2022-11-30T02:40:45.125Z,79.36
2022-11-30T02:41:45.123Z,78.7
2022-11-30T02:42:45.130Z,78.66
2022-11-30T02:43:45.177Z,78.64
2022-11-30T02:44:45.549Z,79.54
2022-11-30T02:45:45.125Z,79.79
2022-11-30T02:46:45.202Z,80.58
2022-11-30T02:47:45.119Z,79.93
2022-11-30T02:48:45.119Z,80.08
2022-11-30T02:49:45.125Z,78.9
2022-11-30T02:50:45.111Z,78.3
2022-11-30T02:51:45.120Z,77.91
2022-11-30T02:52:45.124Z,78.38
2022-11-30T02:53:45.120Z,78.38
2022-11-30T02:54:45.304Z,78.83
2022-11-30T02:55:45.121Z,78.68
2022-11-30T02:56:45.114Z,77.48
2022-11-30T02:57:45.127Z,77.48
2022-11-30T02:58:45.125Z,78.03
2022-11-30T02:59:45.137Z,78.07
2022-11-30T03:00:45.106Z,77.57
2022-11-30T03:01:45.209Z,78.87
2022-11-30T03:02:45.179Z,78.01
2022-11-30T03:03:45.132Z,77.62
2022-11-30T03:04:45.312Z,77.32
2022-11-30T03:05:45.128Z,77.82
2022-11-30T03:06:45.116Z,78.51
2022-11-30T03:07:45.162Z,77.55
2022-11-30T03:08:45.125Z,77.25
2022-11-30T03:09:45.156Z,77
2022-11-30T03:10:45.131Z,76.7
2022-11-30T03:11:45.130Z,77.42
2022-11-30T03:12:45.166Z,77.26
2022-11-30T03:13:45.115Z,77.51
2022-11-30T03:14:45.623Z,76.77
2022-11-30T03:15:45.236Z,76.8
2022-11-30T03:16:45.138Z,77.47
2022-11-30T03:17:45.121Z,77.57
2022-11-30T03:18:45.153Z,77.42
2022-11-30T03:19:45.141Z,77.22
2022-11-30T03:20:45.125Z,77.1
2022-11-30T03:21:45.125Z,77.82
2022-11-30T03:22:45.126Z,78.41
2022-11-30T03:23:45.124Z,77.71
2022-11-30T03:24:45.566Z,77.53
2022-11-30T03:25:45.130Z,77.29
2022-11-30T03:26:45.112Z,77.09
2022-11-30T03:27:45.117Z,77.85
2022-11-30T03:28:45.120Z,77.85
2022-11-30T03:29:45.120Z,77.41
2022-11-30T03:30:45.217Z,77.16
2022-11-30T03:31:45.131Z,77.8
2022-11-30T03:32:45.130Z,77.89
2022-11-30T03:33:45.106Z,77.4
2022-11-30T03:34:45.569Z,77.37
2022-11-30T03:35:45.118Z,76.96
2022-11-30T03:36:45.108Z,77.51
2022-11-30T03:37:45.114Z,78.22
2022-11-30T03:38:45.110Z,77.62
2022-11-30T03:39:45.110Z,77.42
2022-11-30T03:40:45.181Z,77.92
2022-11-30T03:41:45.111Z,77.35
2022-11-30T03:42:45.110Z,77.07
2022-11-30T03:43:45.106Z,77.47
2022-11-30T03:44:45.559Z,77.49
2022-11-30T03:45:45.112Z,77.29
2022-11-30T03:46:45.215Z,76.5
2022-11-30T03:47:45.134Z,76.19
2022-11-30T03:48:45.107Z,75.94
2022-11-30T03:49:45.115Z,76.7
2022-11-30T03:50:45.118Z,77.02
2022-11-30T03:51:45.115Z,76.49
2022-11-30T03:52:45.111Z,76.53
2022-11-30T03:53:45.112Z,76.64
2022-11-30T03:54:45.537Z,76.44
2022-11-30T03:55:45.124Z,76.61
2022-11-30T03:56:45.139Z,76.42
2022-11-30T03:57:45.120Z,76.06
2022-11-30T03:58:45.125Z,76.06
2022-11-30T03:59:45.134Z,75.51
2022-11-30T04:00:45.111Z,75.9
2022-11-30T04:01:45.203Z,76.67
2022-11-30T04:02:45.308Z,77.02
2022-11-30T04:03:45.116Z,76.71
2022-11-30T04:04:45.570Z,76.49
2022-11-30T04:05:45.154Z,76.22
2022-11-30T04:06:45.141Z,76.46
2022-11-30T04:07:45.138Z,76.6
2022-11-30T04:08:45.123Z,76.57
2022-11-30T04:09:45.138Z,76.7
2022-11-30T04:10:45.124Z,77.79
2022-11-30T04:11:45.139Z,77.79
2022-11-30T04:12:45.126Z,77.3
2022-11-30T04:13:45.120Z,76.78
2022-11-30T04:14:45.529Z,76.62
2022-11-30T04:15:45.161Z,76.58
2022-11-30T04:16:45.137Z,76.87
2022-11-30T04:17:45.112Z,77.36
2022-11-30T04:18:45.120Z,77.63
2022-11-30T04:19:45.116Z,77.31
2022-11-30T04:20:45.119Z,76.89
2022-11-30T04:21:45.134Z,76.82
2022-11-30T04:22:45.127Z,77.11
2022-11-30T04:23:45.121Z,77.26
2022-11-30T04:24:45.430Z,77.18
2022-11-30T04:25:45.122Z,77.04
2022-11-30T04:26:45.127Z,76.72
2022-11-30T04:27:45.119Z,76.55
2022-11-30T04:28:45.111Z,77.08
2022-11-30T04:29:45.121Z,77.36
2022-11-30T04:30:45.110Z,77.19
2022-11-30T04:31:45.259Z,77.61
2022-11-30T04:32:45.130Z,77.8
2022-11-30T04:33:45.113Z,77.81
2022-11-30T04:34:45.498Z,77.62
2022-11-30T04:35:45.123Z,77.49
2022-11-30T04:36:45.150Z,77.5
2022-11-30T04:37:45.133Z,77.48
2022-11-30T04:38:45.132Z,77.48
2022-11-30T04:39:45.135Z,78.45
2022-11-30T04:40:45.120Z,78.65
2022-11-30T04:41:45.121Z,78.68
2022-11-30T04:42:45.192Z,79.42
2022-11-30T04:43:45.109Z,79.76
2022-11-30T04:44:45.317Z,80.35
2022-11-30T04:45:45.113Z,79.79
2022-11-30T04:46:45.163Z,79.7
2022-11-30T04:47:45.115Z,79.17
2022-11-30T04:48:45.110Z,78.66
2022-11-30T04:49:45.106Z,78.64
2022-11-30T04:50:45.105Z,78.38
2022-11-30T04:51:45.110Z,78.56
2022-11-30T04:52:45.113Z,79.39
2022-11-30T04:53:45.107Z,78.52
2022-11-30T04:54:45.467Z,78.66
2022-11-30T04:55:45.115Z,78.01
2022-11-30T04:56:45.117Z,77.77
2022-11-30T04:57:45.120Z,85.29
2022-11-30T04:58:45.106Z,77.82
2022-11-30T04:59:45.112Z,77.6
2022-11-30T05:00:45.107Z,77.53
2022-11-30T05:01:45.333Z,77.37
2022-11-30T05:02:50.692Z,77.22
2022-11-30T05:03:45.122Z,77.22
2022-11-30T05:04:45.514Z,76.88
2022-11-30T05:05:45.123Z,76.57
2022-11-30T05:06:45.118Z,76.57
2022-11-30T05:07:45.147Z,76.86
2022-11-30T05:08:45.117Z,76.67
2022-11-30T05:09:45.125Z,76.45
2022-11-30T05:10:50.197Z,76.45
2022-11-30T05:11:45.129Z,76.33
2022-11-30T05:12:45.135Z,76.23
2022-11-30T05:13:45.130Z,76.04
2022-11-30T05:14:45.823Z,75.79
2022-11-30T05:15:45.173Z,75.8
2022-11-30T05:16:45.132Z,75.79
2022-11-30T05:17:45.176Z,75.9
2022-11-30T05:18:45.120Z,76.02
2022-11-30T05:19:45.123Z,75.97
2022-11-30T05:20:45.110Z,75.97
2022-11-30T05:21:45.952Z,76.37
2022-11-30T05:22:45.137Z,76.27
2022-11-30T05:23:45.122Z,76.06
2022-11-30T05:24:45.302Z,75.95
2022-11-30T05:25:45.125Z,75.92
2022-11-30T05:26:45.125Z,75.54
2022-11-30T05:27:45.133Z,75.32
2022-11-30T05:28:45.106Z,75.14
2022-11-30T05:29:45.123Z,75.28
2022-11-30T05:30:45.126Z,75.78
2022-11-30T05:31:45.249Z,76.31
2022-11-30T05:32:45.120Z,76.51
2022-11-30T05:33:45.134Z,76.61
2022-11-30T05:34:51.227Z,76.51
2022-11-30T05:35:45.125Z,76.52
2022-11-30T05:36:45.127Z,76.35
2022-11-30T05:37:45.123Z,76.33
2022-11-30T05:38:45.122Z,76.34
2022-11-30T05:39:45.122Z,76.41
2022-11-30T05:40:45.111Z,76.22
2022-11-30T05:41:45.119Z,76.5
2022-11-30T05:42:45.113Z,76.61
2022-11-30T05:43:45.130Z,76.82
2022-11-30T05:44:45.657Z,77.17
2022-11-30T05:45:45.116Z,77.03
2022-11-30T05:46:45.145Z,76.96
2022-11-30T05:47:45.125Z,77.08
2022-11-30T05:48:45.135Z,76.88
2022-11-30T05:49:45.132Z,77
2022-11-30T05:50:45.109Z,77.45
2022-11-30T05:51:45.125Z,77.39
2022-11-30T05:52:45.117Z,77.21
2022-11-30T05:53:45.114Z,77.46
2022-11-30T05:54:45.288Z,77.06
2022-11-30T05:55:45.112Z,76.94
2022-11-30T05:56:47.914Z,76.92
2022-11-30T05:57:45.105Z,76.97
2022-11-30T05:58:45.113Z,76.92
2022-11-30T05:59:45.126Z,77.52
2022-11-30T06:00:45.113Z,77.89
2022-11-30T06:01:45.275Z,78.86
2022-11-30T06:02:45.203Z,78.63
2022-11-30T06:03:45.119Z,77.89
2022-11-30T06:04:45.472Z,78
2022-11-30T06:05:45.106Z,77.91
2022-11-30T06:06:45.104Z,77.43
2022-11-30T06:07:45.140Z,77.59
2022-11-30T06:08:45.111Z,77.28
2022-11-30T06:09:45.104Z,77.29
2022-11-30T06:10:45.110Z,78.44
2022-11-30T06:11:45.113Z,78.57
2022-11-30T06:12:45.110Z,78.57
2022-11-30T06:13:45.117Z,77.99
2022-11-30T06:14:45.616Z,77.74
2022-11-30T06:15:45.128Z,77.36
2022-11-30T06:16:45.190Z,77.29
2022-11-30T06:17:45.121Z,77.17
2022-11-30T06:18:45.130Z,77.23
2022-11-30T06:19:45.116Z,77.17
2022-11-30T06:20:45.110Z,77.06
2022-11-30T06:21:45.117Z,77.04
2022-11-30T06:22:45.176Z,76.86
2022-11-30T06:23:45.145Z,76.86
2022-11-30T06:24:45.594Z,76.85
2022-11-30T06:25:45.124Z,76.93
2022-11-30T06:26:45.111Z,76.93
2022-11-30T06:27:45.126Z,77.19
2022-11-30T06:28:48.143Z,77.21
2022-11-30T06:29:45.130Z,77.15
2022-11-30T06:30:45.109Z,77.15
2022-11-30T06:31:45.172Z,76.97
2022-11-30T06:32:45.124Z,76.77
2022-11-30T06:33:45.133Z,77.08
2022-11-30T06:34:45.484Z,77.31
2022-11-30T06:35:45.117Z,77.18
2022-11-30T06:36:45.128Z,77.45
2022-11-30T06:37:45.119Z,77.22
2022-11-30T06:38:45.131Z,77.15
2022-11-30T06:40:05.278Z,77.1
2022-11-30T06:40:45.109Z,77.1
2022-11-30T06:41:46.392Z,76.89
2022-11-30T06:42:45.120Z,76.89
2022-11-30T06:43:45.116Z,76.32
2022-11-30T06:44:45.474Z,76.26
2022-11-30T06:45:45.185Z,76.73
2022-11-30T06:46:45.135Z,76.49
2022-11-30T06:47:45.118Z,76.37
2022-11-30T06:48:45.120Z,76.68
2022-11-30T06:49:45.120Z,76.8
2022-11-30T06:50:49.878Z,76.98
2022-11-30T06:51:45.130Z,76.4
2022-11-30T06:52:45.116Z,76.33
2022-11-30T06:53:45.131Z,76.22
2022-11-30T06:54:45.551Z,76.82
2022-11-30T06:55:45.118Z,76.44
2022-11-30T06:56:45.114Z,76.07
2022-11-30T06:57:45.117Z,75.72
2022-11-30T06:58:45.117Z,75.62
2022-11-30T06:59:45.163Z,75.4
2022-11-30T07:00:45.143Z,75.58
2022-11-30T07:01:45.142Z,75.65
2022-11-30T07:02:45.121Z,75.51
2022-11-30T07:03:45.159Z,75.4
2022-11-30T07:04:45.370Z,75.3
2022-11-30T07:05:45.222Z,75.09
2022-11-30T07:06:45.108Z,75.18
2022-11-30T07:07:45.177Z,74.98
2022-11-30T07:08:45.110Z,74.87
2022-11-30T07:09:45.145Z,74.91
2022-11-30T07:10:45.107Z,74.94
2022-11-30T07:11:45.104Z,75.25
2022-11-30T07:12:45.112Z,75.14
2022-11-30T07:13:45.111Z,74.96
2022-11-30T07:14:45.516Z,74.97
2022-11-30T07:15:45.115Z,74.97
2022-11-30T07:16:45.155Z,74.87
2022-11-30T07:17:45.106Z,74.83
2022-11-30T07:18:45.105Z,74.67
2022-11-30T07:19:45.127Z,74.86
2022-11-30T07:20:45.137Z,74.86
2022-11-30T07:21:45.106Z,76.25
2022-11-30T07:22:45.104Z,76.06
2022-11-30T07:23:45.104Z,75.56
2022-11-30T07:24:45.393Z,75.04
2022-11-30T07:25:45.112Z,75.04
2022-11-30T07:26:45.125Z,75.28
2022-11-30T07:27:45.108Z,74.95
2022-11-30T07:28:45.127Z,74.69
2022-11-30T07:29:45.352Z,74.95
2022-11-30T07:30:45.134Z,75.65
2022-11-30T07:31:45.191Z,75.42
2022-11-30T07:32:45.126Z,75.14
2022-11-30T07:33:45.131Z,74.85
2022-11-30T07:34:45.369Z,74.7
2022-11-30T07:35:45.128Z,75.06
2022-11-30T07:36:45.122Z,75.15
2022-11-30T07:37:45.119Z,75.19
2022-11-30T07:38:45.129Z,75.19
2022-11-30T07:39:45.136Z,74.86
2022-11-30T07:40:45.115Z,74.89
2022-11-30T07:41:45.119Z,75.63
2022-11-30T07:42:45.117Z,76.27
2022-11-30T07:43:45.123Z,75.83
2022-11-30T07:44:45.469Z,75.81
2022-11-30T07:45:45.192Z,76.08
2022-11-30T07:46:45.135Z,75.62
2022-11-30T07:47:45.124Z,75.06
2022-11-30T07:48:45.126Z,75.31
2022-11-30T07:49:45.124Z,75.65
2022-11-30T07:50:45.116Z,75.65
2022-11-30T07:51:45.129Z,76.14
2022-11-30T07:52:45.132Z,76.14
2022-11-30T07:53:45.125Z,76.5
2022-11-30T07:54:45.346Z,76.61
2022-11-30T07:55:45.130Z,76.54
2022-11-30T07:56:45.114Z,76.44
2022-11-30T07:57:45.123Z,76.91
2022-11-30T07:58:45.124Z,76.68
2022-11-30T07:59:45.705Z,76.54
2022-11-30T08:00:45.194Z,76.53
2022-11-30T08:01:45.275Z,76.44
2022-11-30T08:02:45.123Z,76.32
2022-11-30T08:03:45.116Z,76.13
2022-11-30T08:04:45.501Z,76.52
2022-11-30T08:05:45.145Z,76.45
2022-11-30T08:06:45.118Z,76.51
2022-11-30T08:07:45.183Z,76.32
2022-11-30T08:08:45.132Z,76.29
2022-11-30T08:09:45.137Z,76.02
2022-11-30T08:10:45.133Z,68.24
2022-11-30T08:11:45.123Z,68.24
2022-11-30T08:12:45.124Z,76.04
2022-11-30T08:13:45.164Z,76.39
2022-11-30T08:15:17.955Z,76.42
2022-11-30T08:15:45.133Z,76.13
2022-11-30T08:16:45.217Z,75.66
2022-11-30T08:17:45.117Z,75.83
2022-11-30T08:18:45.118Z,76.16
2022-11-30T08:19:45.134Z,76.74
2022-11-30T08:20:49.804Z,76.74
2022-11-30T08:21:45.127Z,75.93
2022-11-30T08:22:45.112Z,75.64
2022-11-30T08:23:45.306Z,76.09
2022-11-30T08:24:45.105Z,75.98
2022-11-30T08:25:45.117Z,75.71
2022-11-30T08:26:45.177Z,76.03
2022-11-30T08:27:45.107Z,75.68
2022-11-30T08:28:45.119Z,75.63
2022-11-30T08:29:45.109Z,75.83
2022-11-30T08:30:45.143Z,76.36
2022-11-30T08:31:45.136Z,75.92
2022-11-30T08:32:45.109Z,76.12
2022-11-30T08:33:45.112Z,75.84
2022-11-30T08:34:45.281Z,75.47
2022-11-30T08:35:45.110Z,75.39
2022-11-30T08:36:48.767Z,75.39
2022-11-30T08:37:45.123Z,75.45
2022-11-30T08:38:45.106Z,75.48
2022-11-30T08:39:45.117Z,75.63
2022-11-30T08:40:45.104Z,76.14
2022-11-30T08:41:45.119Z,75.88
2022-11-30T08:42:45.103Z,76.83
2022-11-30T08:43:45.105Z,76.55
2022-11-30T08:44:45.122Z,76.5
2022-11-30T08:45:45.262Z,76.11
2022-11-30T08:46:52.438Z,75.89
2022-11-30T08:47:45.131Z,75.74
2022-11-30T08:48:45.119Z,75.37
2022-11-30T08:49:45.125Z,75.38
2022-11-30T08:50:45.143Z,75.34
2022-11-30T08:52:15.921Z,74.93
2022-11-30T08:52:45.117Z,74.9
2022-11-30T08:53:45.126Z,74.91
2022-11-30T08:54:45.919Z,74.93
2022-11-30T08:55:45.129Z,75.02
2022-11-30T08:56:45.133Z,75.12
2022-11-30T08:57:45.150Z,75.28
2022-11-30T08:58:45.139Z,75.65
2022-11-30T08:59:45.125Z,75.14
2022-11-30T09:00:45.125Z,75.11
2022-11-30T09:01:45.136Z,75.39
2022-11-30T09:02:45.171Z,75.34
2022-11-30T09:03:45.127Z,75.58
2022-11-30T09:04:45.125Z,75.85
2022-11-30T09:05:45.132Z,75.37
2022-11-30T09:06:45.133Z,74.95
2022-11-30T09:07:45.181Z,83.34
2022-11-30T09:08:45.192Z,74.05
2022-11-30T09:09:45.142Z,73.64
2022-11-30T09:10:45.126Z,73.27
2022-11-30T09:11:45.119Z,73.92
2022-11-30T09:12:45.133Z,73.67
2022-11-30T09:13:45.142Z,73.43
2022-11-30T09:14:45.350Z,73.85
2022-11-30T09:15:45.170Z,74.02
2022-11-30T09:16:45.137Z,74.02
2022-11-30T09:17:45.131Z,74.37
2022-11-30T09:18:45.157Z,74.84
2022-11-30T09:19:45.133Z,74.59
2022-11-30T09:20:45.118Z,74.1
2022-11-30T09:21:51.228Z,72.92
2022-11-30T09:22:45.114Z,72.67
2022-11-30T09:23:45.150Z,74.8
2022-11-30T09:24:45.825Z,73.51
2022-11-30T09:25:45.127Z,74.48
2022-11-30T09:26:45.125Z,74.3
2022-11-30T09:27:45.128Z,73.32
2022-11-30T09:28:45.120Z,73.02
2022-11-30T09:29:45.138Z,72.81
2022-11-30T09:30:45.181Z,72.54
2022-11-30T09:31:45.158Z,72.36
2022-11-30T09:32:45.118Z,72.52
2022-11-30T09:33:45.130Z,72.61
2022-11-30T09:34:45.400Z,72.11
2022-11-30T09:35:45.125Z,71.66
2022-11-30T09:36:45.105Z,71.12
2022-11-30T09:37:45.127Z,71.26
2022-11-30T09:38:45.154Z,71.09
2022-11-30T09:39:45.109Z,70.87
2022-11-30T09:40:45.113Z,70.53
2022-11-30T09:41:45.106Z,70.18
2022-11-30T09:42:45.112Z,70.12
2022-11-30T09:43:45.131Z,70.88
2022-11-30T09:44:52.802Z,70.53
2022-11-30T09:45:51.577Z,70
2022-11-30T09:46:51.531Z,70.48
2022-11-30T09:47:51.529Z,70.05
2022-11-30T09:48:51.538Z,70.4
2022-11-30T09:49:51.536Z,70.28
2022-11-30T09:50:51.525Z,70.67
2022-11-30T09:51:51.522Z,70.85
2022-11-30T09:52:51.514Z,70.63
2022-11-30T09:53:51.541Z,70.65
2022-11-30T09:54:51.522Z,70.89
2022-11-30T09:55:51.513Z,70.78
2022-11-30T09:56:51.519Z,71.39
2022-11-30T09:57:51.563Z,70.61
2022-11-30T09:58:51.546Z,71
2022-11-30T09:59:51.528Z,71.06
2022-11-30T10:00:51.523Z,71.2
2022-11-30T10:01:56.656Z,71.35
2022-11-30T10:02:51.729Z,71.43
2022-11-30T10:03:51.643Z,70.94
2022-11-30T10:04:51.516Z,70.97
2022-11-30T10:05:51.519Z,71.31
2022-11-30T10:06:51.518Z,71.6
2022-11-30T10:07:51.643Z,71.68
2022-11-30T10:08:51.519Z,71.42
2022-11-30T10:10:09.430Z,71.09
2022-11-30T10:10:51.517Z,71.22
2022-11-30T10:11:51.516Z,71.34
2022-11-30T10:12:51.520Z,71.61
2022-11-30T10:13:51.528Z,71.77
2022-11-30T10:14:54.798Z,71.77
2022-11-30T10:15:51.557Z,70.93
2022-11-30T10:16:51.535Z,71.12
2022-11-30T10:17:51.515Z,71.21
2022-11-30T10:18:51.531Z,70.86
2022-11-30T10:19:51.530Z,70.83
2022-11-30T10:20:51.514Z,70.5
2022-11-30T10:21:51.507Z,71.87
2022-11-30T10:23:51.535Z,70.91
2022-11-30T10:24:51.514Z,70.88
2022-11-30T10:25:51.514Z,72.42
2022-11-30T10:26:51.495Z,70.9
2022-11-30T10:27:51.505Z,72.36
2022-11-30T10:28:51.669Z,70.93
2022-11-30T10:29:51.493Z,69.94
2022-11-30T10:30:51.567Z,69.83
2022-11-30T10:31:51.516Z,70
2022-11-30T10:32:51.496Z,69.95
2022-11-30T10:33:51.530Z,69.44
2022-11-30T10:34:51.502Z,70.44
2022-11-30T10:35:51.535Z,69.77
2022-11-30T10:36:51.513Z,71.01
2022-11-30T10:37:51.488Z,70.43
2022-11-30T10:38:51.511Z,70.9
2022-11-30T10:39:51.496Z,72.17
2022-11-30T10:40:51.492Z,71.63
2022-11-30T10:41:51.495Z,70.4
2022-11-30T10:42:51.494Z,70.45
2022-11-30T10:43:51.517Z,70.15
2022-11-30T10:44:51.502Z,69.98
2022-11-30T10:45:51.645Z,69.75
2022-11-30T10:46:51.560Z,69.71
2022-11-30T10:47:51.511Z,70.68
2022-11-30T10:48:51.545Z,70.43
2022-11-30T10:49:51.528Z,70.39
2022-11-30T10:50:51.509Z,70.22
2022-11-30T10:51:51.514Z,70.22
2022-11-30T10:52:51.510Z,70.23
2022-11-30T10:53:51.527Z,70.23
2022-11-30T10:54:51.515Z,69.03
2022-11-30T10:55:51.516Z,69.14
2022-11-30T10:56:51.513Z,69.69
2022-11-30T10:57:51.505Z,69.08
2022-11-30T10:58:51.524Z,70.02
2022-11-30T10:59:51.513Z,68.92
2022-11-30T11:00:51.508Z,68.49
2022-11-30T11:01:51.673Z,68.49
2022-11-30T11:02:51.561Z,68.02
2022-11-30T11:03:51.614Z,67.65
2022-11-30T11:04:51.516Z,67.74
2022-11-30T11:05:51.509Z,67.98
2022-11-30T11:06:51.524Z,67.19
2022-11-30T11:07:51.539Z,67.39
2022-11-30T11:08:51.514Z,68.81
2022-11-30T11:09:51.502Z,66.7
2022-11-30T11:10:51.560Z,66.66
2022-11-30T11:11:51.512Z,66.88
2022-11-30T11:12:51.516Z,67.2
2022-11-30T11:13:51.516Z,67.2
2022-11-30T11:14:51.513Z,68.12
2022-11-30T11:15:51.579Z,67.39
2022-11-30T11:16:51.521Z,66.86
2022-11-30T11:17:51.509Z,66.86
2022-11-30T11:18:51.516Z,66.15
2022-11-30T11:19:51.508Z,67.46
2022-11-30T11:20:55.591Z,66.64
2022-11-30T11:21:51.505Z,65.5
2022-11-30T11:22:51.531Z,65.32
2022-11-30T11:23:51.524Z,65.37
2022-11-30T11:24:51.511Z,65.21
2022-11-30T11:25:51.532Z,65.82
2022-11-30T11:26:51.524Z,65.48
2022-11-30T11:27:51.511Z,65.21
2022-11-30T11:28:51.523Z,64.17
2022-11-30T11:29:51.509Z,64.08
2022-11-30T11:30:51.529Z,64.73
2022-11-30T11:31:51.607Z,64.73
2022-11-30T11:32:51.515Z,64.73
2022-11-30T11:33:51.526Z,64.38
2022-11-30T11:34:51.697Z,64.35
2022-11-30T11:35:51.498Z,64.24
2022-11-30T11:36:51.486Z,64.51
2022-11-30T11:37:51.509Z,64.41
2022-11-30T11:38:51.512Z,64.41
2022-11-30T11:39:51.486Z,63.95
2022-11-30T11:40:51.491Z,63.95
2022-11-30T11:41:51.493Z,63.86
2022-11-30T11:42:51.496Z,64.28
2022-11-30T11:43:51.504Z,63.82
2022-11-30T11:44:51.498Z,63.85
2022-11-30T11:45:51.489Z,64.07
2022-11-30T11:46:51.625Z,64.52
2022-11-30T11:47:51.490Z,64.44
2022-11-30T11:48:51.515Z,64.16
2022-11-30T11:49:51.526Z,64.29
2022-11-30T11:51:06.025Z,65.04
2022-11-30T11:51:51.491Z,65.79
2022-11-30T11:52:51.492Z,64.57
2022-11-30T11:53:53.639Z,64.55
2022-11-30T11:54:51.507Z,64.95
2022-11-30T11:55:51.488Z,64.73
2022-11-30T11:56:51.491Z,64.87
2022-11-30T11:57:51.508Z,64.46
2022-11-30T11:58:51.529Z,65.55
2022-11-30T11:59:51.511Z,65.06
2022-11-30T12:00:57.633Z,65.14
2022-11-30T12:01:51.516Z,65.58
2022-11-30T12:02:51.549Z,65.73
2022-11-30T12:03:51.763Z,65.21
2022-11-30T12:04:51.510Z,65.28
2022-11-30T12:05:51.512Z,65.38
2022-11-30T12:06:51.508Z,66
2022-11-30T12:07:51.589Z,65.3
2022-11-30T12:08:51.523Z,64.98
2022-11-30T12:09:51.509Z,64.97
2022-11-30T12:10:52.769Z,64.77
2022-11-30T12:11:51.508Z,64.9
2022-11-30T12:12:54.854Z,64.75
2022-11-30T12:13:51.530Z,64.82
2022-11-30T12:14:51.512Z,64.62
2022-11-30T12:15:51.544Z,64.45
2022-11-30T12:16:51.519Z,64.65
2022-11-30T12:17:51.507Z,64.58
2022-11-30T12:18:51.538Z,64.78
2022-11-30T12:19:51.500Z,64.82
2022-11-30T12:20:51.503Z,64.62
2022-11-30T12:21:51.510Z,65.54
2022-11-30T12:22:51.503Z,64.99
2022-11-30T12:23:51.525Z,66.63
2022-11-30T12:24:51.513Z,66.63
2022-11-30T12:25:51.501Z,65.04
2022-11-30T12:26:51.511Z,65
2022-11-30T12:27:54.032Z,64.42
2022-11-30T12:28:51.518Z,65.41
2022-11-30T12:29:51.509Z,65.83
2022-11-30T12:30:51.561Z,64.79
2022-11-30T12:31:51.618Z,64.75
2022-11-30T12:32:51.511Z,64.45
2022-11-30T12:33:51.517Z,64.75
2022-11-30T12:34:51.521Z,64.89
2022-11-30T12:35:51.516Z,64.76
2022-11-30T12:36:51.500Z,64.35
2022-11-30T12:37:51.514Z,64.35
2022-11-30T12:38:51.567Z,64.26
2022-11-30T12:39:51.506Z,64.16
2022-11-30T12:40:51.505Z,67.84
2022-11-30T12:41:51.511Z,64.11
2022-11-30T12:42:51.504Z,63.94
2022-11-30T12:43:51.519Z,64.5
2022-11-30T12:44:51.510Z,64.03
2022-11-30T12:45:51.506Z,64.01
2022-11-30T12:46:51.562Z,64.45
2022-11-30T12:47:51.490Z,63.81
2022-11-30T12:48:51.514Z,63.68
2022-11-30T12:49:51.484Z,63.74
2022-11-30T12:50:51.493Z,63.84
2022-11-30T12:51:51.560Z,63.8
2022-11-30T12:52:51.515Z,63.71
2022-11-30T12:53:51.506Z,63.42
2022-11-30T12:54:51.503Z,63.48
2022-11-30T12:55:51.492Z,64.28
2022-11-30T12:56:51.491Z,64.63